Time;durP1;ratioP1;P1;durP2;ratioP2;P2;SDS_P1;SDS_P2;PMS_P1;PMS_P2;Temp;Humidity;BMP_temperature;BMP_pressure;BME280_temperature;BME280_humidity;BME280_pressure;Samples;Min_cycle;Max_cycle;Signal;HPM_P1;HPM_P2
2020/12/21 00:01:20;;;;;;;2.00;1.70;;;18.60;59.50;;;;;;5064003;28;20179;-59
2020/12/21 00:03:45;;;;;;;3.47;1.77;;;18.60;59.60;;;;;;5063933;28;20210;-59
2020/12/21 00:06:14;;;;;;;3.65;2.28;;;18.60;59.40;;;;;;5064205;28;20503;-58
2020/12/21 00:08:40;;;;;;;3.35;2.10;;;18.50;59.60;;;;;;5064106;28;20170;-59
2020/12/21 00:11:06;;;;;;;1.90;1.63;;;18.50;59.40;;;;;;5063971;28;20311;-58
2020/12/21 00:13:32;;;;;;;3.08;2.20;;;18.50;59.60;;;;;;5063779;28;20186;-58
2020/12/21 00:15:57;;;;;;;2.97;1.80;;;18.50;59.30;;;;;;5064005;28;20174;-57
2020/12/21 00:18:23;;;;;;;2.58;1.67;;;18.50;59.40;;;;;;5064023;28;20177;-57
2020/12/21 00:20:49;;;;;;;3.72;1.67;;;18.50;59.40;;;;;;5064162;28;20210;-56
2020/12/21 00:23:15;;;;;;;2.75;1.75;;;18.40;59.40;;;;;;5063761;28;20546;-55
2020/12/21 00:25:40;;;;;;;3.42;2.05;;;18.40;59.30;;;;;;5063628;28;20190;-54
2020/12/21 00:28:06;;;;;;;2.33;1.77;;;18.40;59.30;;;;;;5063733;28;20541;-58
2020/12/21 00:30:31;;;;;;;2.65;1.83;;;18.40;59.30;;;;;;5063832;28;20243;-59
2020/12/21 00:32:57;;;;;;;3.92;1.73;;;18.40;59.20;;;;;;5064182;28;20175;-55
2020/12/21 00:35:22;;;;;;;2.78;1.83;;;18.30;59.30;;;;;;5063489;28;20170;-57
2020/12/21 00:37:48;;;;;;;2.25;1.65;;;18.30;59.20;;;;;;5063858;28;20936;-59
2020/12/21 00:40:14;;;;;;;2.47;1.90;;;18.30;59.20;;;;;;5063859;28;20392;-60
2020/12/21 00:42:39;;;;;;;3.30;1.63;;;18.30;59.30;;;;;;5063706;28;20245;-57
2020/12/21 00:45:05;;;;;;;4.75;1.75;;;18.30;59.20;;;;;;5064058;28;20182;-58
2020/12/21 00:47:33;;;;;;;2.38;1.77;;;18.30;59.20;;;;;;5067293;28;20205;-57
2020/12/21 00:49:59;;;;;;;3.28;1.80;;;18.30;59.20;;;;;;5067430;28;20392;-57
2020/12/21 00:52:24;;;;;;;2.85;1.88;;;18.30;59.20;;;;;;5067165;28;20940;-57
2020/12/21 00:54:50;;;;;;;2.45;1.55;;;18.20;59.10;;;;;;5067025;28;20174;-57
2020/12/21 00:57:15;;;;;;;3.97;2.08;;;18.20;59.00;;;;;;5067213;28;20289;-55
2020/12/21 00:59:41;;;;;;;2.85;1.90;;;18.20;59.20;;;;;;5067319;28;20221;-53
2020/12/21 01:02:06;;;;;;;2.88;1.70;;;18.20;59.10;;;;;;5066995;28;20174;-56
2020/12/21 01:04:32;;;;;;;3.20;2.20;;;18.20;59.10;;;;;;5066556;28;20202;-56
2020/12/21 01:06:57;;;;;;;3.25;2.00;;;18.20;59.10;;;;;;5066928;28;20360;-54
2020/12/21 01:09:23;;;;;;;3.00;2.00;;;18.20;59.10;;;;;;5066947;28;20181;-53
2020/12/21 01:11:51;;;;;;;3.67;1.95;;;18.20;59.10;;;;;;5066935;28;20232;-53
2020/12/21 01:14:17;;;;;;;2.30;1.80;;;18.20;59.10;;;;;;5066816;28;21117;-54
2020/12/21 01:16:42;;;;;;;3.97;1.90;;;18.10;59.20;;;;;;5066504;28;20174;-57
2020/12/21 01:19:08;;;;;;;3.00;1.98;;;18.10;59.10;;;;;;5067005;28;20204;-57
2020/12/21 01:21:34;;;;;;;2.97;2.03;;;18.10;59.20;;;;;;5066712;28;20179;-55
2020/12/21 01:23:59;;;;;;;4.32;2.17;;;18.10;59.20;;;;;;5066820;28;20210;-55
2020/12/21 01:26:25;;;;;;;2.75;1.70;;;18.10;59.20;;;;;;5066456;28;20194;-56
2020/12/21 01:28:51;;;;;;;1.90;1.55;;;18.00;59.20;;;;;;5066557;28;20709;-52
2020/12/21 01:31:17;;;;;;;3.47;1.70;;;18.10;59.10;;;;;;5066592;28;20201;-53
2020/12/21 01:33:43;;;;;;;3.00;1.75;;;18.10;59.10;;;;;;5066560;28;20640;-57
2020/12/21 01:36:09;;;;;;;3.33;2.22;;;18.10;59.20;;;;;;5066360;28;20171;-50
2020/12/21 01:38:34;;;;;;;1.98;1.58;;;18.00;59.20;;;;;;5066351;28;20632;-52
2020/12/21 01:41:00;;;;;;;2.30;1.65;;;18.10;59.20;;;;;;5066214;28;20185;-58
2020/12/21 01:43:25;;;;;;;3.28;1.77;;;18.10;59.20;;;;;;5066234;28;20243;-54
2020/12/21 01:45:51;;;;;;;3.22;1.98;;;18.00;59.10;;;;;;5066195;28;20167;-55
2020/12/21 01:48:17;;;;;;;5.75;2.30;;;18.00;59.20;;;;;;5066362;28;20194;-57
2020/12/21 01:50:42;;;;;;;2.35;2.15;;;18.00;59.00;;;;;;5048519;28;20240;-57
2020/12/21 01:53:10;;;;;;;2.22;1.77;;;18.00;59.20;;;;;;5048198;28;20170;-53
2020/12/21 01:55:40;;;;;;;2.75;1.88;;;18.00;59.20;;;;;;5048435;28;20162;-55
2020/12/21 01:58:06;;;;;;;3.10;1.70;;;18.00;59.10;;;;;;5047648;28;20773;-55
2020/12/21 02:00:32;;;;;;;3.72;2.63;;;18.00;59.10;;;;;;5066161;28;20220;-56
2020/12/21 02:02:57;;;;;;;4.78;2.25;;;17.90;59.10;;;;;;5066065;28;20202;-58
2020/12/21 02:05:23;;;;;;;2.28;1.67;;;18.00;59.10;;;;;;5047939;28;20723;-53
2020/12/21 02:07:48;;;;;;;2.58;1.58;;;17.90;59.10;;;;;;5048010;28;20189;-56
2020/12/21 02:10:14;;;;;;;2.40;1.77;;;17.90;59.10;;;;;;5031318;28;20343;-50
2020/12/21 02:12:39;;;;;;;2.35;1.83;;;17.90;59.20;;;;;;5031405;28;20181;-52
2020/12/21 02:15:05;;;;;;;2.78;1.75;;;17.90;59.10;;;;;;5065940;28;20182;-58
2020/12/21 02:17:31;;;;;;;2.33;1.95;;;17.90;59.10;;;;;;5065654;28;20202;-57
2020/12/21 02:19:56;;;;;;;2.72;1.80;;;17.90;59.20;;;;;;5065708;28;20537;-55
2020/12/21 02:22:23;;;;;;;3.03;1.80;;;17.90;59.10;;;;;;5065661;28;20170;-56
2020/12/21 02:24:49;;;;;;;2.72;1.85;;;17.90;59.10;;;;;;5047811;28;20186;-55
2020/12/21 02:27:14;;;;;;;3.40;2.17;;;17.80;59.00;;;;;;5065748;28;20194;-58
2020/12/21 02:29:40;;;;;;;3.83;1.83;;;17.80;59.00;;;;;;5065577;28;20540;-57
2020/12/21 02:32:05;;;;;;;3.33;1.80;;;17.80;59.20;;;;;;5065661;28;20170;-52
2020/12/21 02:34:31;;;;;;;3.33;1.85;;;17.90;59.20;;;;;;5065431;28;20174;-57
2020/12/21 02:36:57;;;;;;;4.53;2.40;;;17.80;59.10;;;;;;5065230;28;20632;-56
2020/12/21 02:39:23;;;;;;;2.53;2.05;;;17.80;59.10;;;;;;5065464;28;20190;-59
2020/12/21 02:41:49;;;;;;;2.53;1.83;;;17.80;59.00;;;;;;5065395;28;20198;-55
2020/12/21 02:44:15;;;;;;;1.92;1.60;;;17.80;59.10;;;;;;5065088;28;20222;-58
2020/12/21 02:46:42;;;;;;;3.03;1.60;;;17.80;59.10;;;;;;5065391;28;20181;-56
2020/12/21 02:49:08;;;;;;;3.92;1.85;;;17.80;58.50;;;;;;5065576;28;20178;-58
2020/12/21 02:51:33;;;;;;;2.15;1.52;;;17.80;58.90;;;;;;5065112;28;20171;-56
2020/12/21 02:53:59;;;;;;;2.25;1.70;;;17.80;58.90;;;;;;5065026;28;20691;-55
2020/12/21 02:56:24;;;;;;;2.80;1.70;;;17.80;58.90;;;;;;5064757;28;20524;-57
2020/12/21 02:58:50;;;;;;;2.97;2.03;;;17.70;58.90;;;;;;5065209;28;20201;-57
2020/12/21 03:01:15;;;;;;;2.92;1.75;;;17.70;58.80;;;;;;5065002;28;20220;-56
2020/12/21 03:03:41;;;;;;;3.03;1.80;;;17.70;59.50;;;;;;5064862;28;20276;-52
2020/12/21 03:06:06;;;;;;;3.28;1.80;;;17.70;58.80;;;;;;5064488;28;20175;-54
2020/12/21 03:08:32;;;;;;;3.38;2.15;;;17.70;58.80;;;;;;5064325;28;20273;-53
2020/12/21 03:10:57;;;;;;;2.35;1.65;;;17.70;58.90;;;;;;5064593;28;20194;-58
2020/12/21 03:13:23;;;;;;;4.03;1.92;;;17.70;58.80;;;;;;5064484;28;20178;-57
2020/12/21 03:15:49;;;;;;;3.60;2.00;;;17.70;58.80;;;;;;5064732;28;20182;-55
2020/12/21 03:18:14;;;;;;;2.65;1.60;;;17.70;58.90;;;;;;5064374;28;20183;-57
2020/12/21 03:20:40;;;;;;;5.78;2.28;;;17.70;58.80;;;;;;5064447;28;20186;-51
2020/12/21 03:23:05;;;;;;;3.35;2.15;;;17.60;58.70;;;;;;5064167;28;20206;-57
2020/12/21 03:25:31;;;;;;;2.70;1.48;;;17.60;58.80;;;;;;5064028;28;20223;-51
2020/12/21 03:27:56;;;;;;;2.70;1.70;;;17.70;58.80;;;;;;5064096;28;20179;-50
2020/12/21 03:30:22;;;;;;;2.63;1.73;;;17.70;58.80;;;;;;5064318;28;20175;-55
2020/12/21 03:32:47;;;;;;;3.13;1.88;;;17.60;58.80;;;;;;5064170;28;20204;-53
2020/12/21 03:35:13;;;;;;;2.35;2.15;;;17.60;58.70;;;;;;5064224;28;20624;-52
2020/12/21 03:37:38;;;;;;;3.95;2.05;;;17.60;58.80;;;;;;5063990;28;20174;-56
2020/12/21 03:40:05;;;;;;;3.15;2.03;;;17.60;58.80;;;;;;5064204;28;20307;-56
2020/12/21 03:42:30;;;;;;;3.45;1.80;;;17.60;58.70;;;;;;5063827;28;20255;-57
2020/12/21 03:44:56;;;;;;;4.53;2.15;;;17.60;58.70;;;;;;5046331;28;20639;-56
2020/12/21 03:47:21;;;;;;;3.03;1.60;;;17.60;58.70;;;;;;5063942;28;20182;-54
2020/12/21 03:49:47;;;;;;;4.35;1.98;;;17.60;58.70;;;;;;5064132;28;20576;-54
2020/12/21 03:52:12;;;;;;;2.72;2.05;;;17.60;58.70;;;;;;5063985;28;20167;-52
2020/12/21 03:54:38;;;;;;;2.65;1.77;;;17.50;58.70;;;;;;5063532;28;20189;-52
2020/12/21 03:57:04;;;;;;;1.48;1.38;;;17.60;58.70;;;;;;5064024;28;20166;-55
2020/12/21 03:59:29;;;;;;;1.60;1.50;;;17.50;58.70;;;;;;5063893;28;20227;-57
2020/12/21 04:01:55;;;;;;;2.05;1.52;;;17.50;58.70;;;;;;5064478;28;20174;-55
2020/12/21 04:04:20;;;;;;;3.17;1.85;;;17.60;58.60;;;;;;5064057;28;20206;-59
2020/12/21 04:06:46;;;;;;;2.33;1.60;;;17.50;58.60;;;;;;5064062;28;20186;-52
2020/12/21 04:09:11;;;;;;;3.35;1.70;;;17.50;58.60;;;;;;5063894;28;20586;-56
2020/12/21 04:11:37;;;;;;;2.05;1.42;;;17.50;58.50;;;;;;5064180;28;20174;-58
2020/12/21 04:14:02;;;;;;;2.17;1.77;;;17.50;58.60;;;;;;5064051;28;20175;-56
2020/12/21 04:16:28;;;;;;;3.60;1.60;;;17.50;58.70;;;;;;5063988;28;20175;-59
2020/12/21 04:18:53;;;;;;;2.60;1.60;;;17.50;58.50;;;;;;5063735;28;20232;-59
2020/12/21 04:21:19;;;;;;;1.70;1.40;;;17.50;58.50;;;;;;5066545;28;20265;-56
2020/12/21 04:23:45;;;;;;;2.80;1.70;;;17.50;58.50;;;;;;5068037;28;20895;-58
2020/12/21 04:26:10;;;;;;;2.72;1.60;;;17.50;58.40;;;;;;5067939;28;20233;-53
2020/12/21 04:28:36;;;;;;;1.70;1.60;;;17.40;58.50;;;;;;5067705;28;20170;-53
2020/12/21 04:31:02;;;;;;;2.97;1.88;;;17.40;58.40;;;;;;5067717;28;20174;-55
2020/12/21 04:33:28;;;;;;;2.75;1.33;;;17.50;58.40;;;;;;5067990;28;20179;-55
2020/12/21 04:35:53;;;;;;;2.70;1.77;;;17.40;58.40;;;;;;5067703;28;20208;-56
2020/12/21 04:38:19;;;;;;;2.55;1.55;;;17.40;58.40;;;;;;5067260;28;20187;-57
2020/12/21 04:40:55;;;;;;;2.35;1.70;;;17.40;58.40;;;;;;5067381;28;20281;-56
2020/12/21 04:43:21;;;;;;;2.95;1.65;;;17.40;58.50;;;;;;5067559;28;20242;-60
2020/12/21 04:45:47;;;;;;;3.53;1.63;;;17.40;58.50;;;;;;5067532;28;20620;-57
2020/12/21 04:48:15;;;;;;;2.20;1.60;;;17.40;58.40;;;;;;5033240;28;20177;-58
2020/12/21 04:50:40;;;;;;;3.50;1.67;;;17.40;58.40;;;;;;5067196;28;20175;-53
2020/12/21 04:53:06;;;;;;;3.90;1.90;;;17.40;58.30;;;;;;5049739;28;20245;-57
2020/12/21 04:55:31;;;;;;;3.75;1.92;;;17.40;58.40;;;;;;5033229;28;20239;-59
2020/12/21 04:58:01;;;;;;;2.90;1.75;;;17.40;58.40;;;;;;5067217;28;20181;-57
2020/12/21 05:00:28;;;;;;;1.73;1.60;;;17.40;58.40;;;;;;5067168;28;20195;-55
2020/12/21 05:02:53;;;;;;;2.72;1.40;;;17.40;58.40;;;;;;5067150;28;20201;-51
2020/12/21 05:05:39;;;;;;;2.00;1.80;;;17.40;58.40;;;;;;5067190;28;20174;-57
2020/12/21 05:08:18;;;;;;;2.05;1.85;;;17.40;58.40;;;;;;5067005;28;20174;-54
2020/12/21 05:10:45;;;;;;;1.58;1.20;;;17.40;58.40;;;;;;5067179;28;20262;-55
2020/12/21 05:13:12;;;;;;;2.85;1.60;;;17.30;58.40;;;;;;5067058;28;20239;-56
2020/12/21 05:15:38;;;;;;;1.77;1.55;;;17.30;58.40;;;;;;5066621;28;20515;-56
2020/12/21 05:18:10;;;;;;;1.83;1.40;;;17.30;58.40;;;;;;5066728;28;20181;-56
2020/12/21 05:20:39;;;;;;;1.83;1.45;;;17.30;58.40;;;;;;5066932;28;20184;-55
2020/12/21 05:23:06;;;;;;;2.88;1.55;;;17.30;58.40;;;;;;5066051;28;20229;-51
2020/12/21 05:25:32;;;;;;;2.30;1.65;;;17.30;58.40;;;;;;5066311;28;20186;-51
2020/12/21 05:28:11;;;;;;;1.88;1.52;;;17.30;58.40;;;;;;5066290;28;20170;-50
2020/12/21 05:30:36;;;;;;;1.60;1.50;;;17.30;58.50;;;;;;5066700;28;20185;-57
2020/12/21 05:33:02;;;;;;;1.92;1.60;;;17.30;58.40;;;;;;5066612;28;20178;-56
2020/12/21 05:35:30;;;;;;;2.85;1.50;;;17.20;58.40;;;;;;5066647;28;20174;-51
2020/12/21 05:37:56;;;;;;;1.83;1.42;;;17.20;58.40;;;;;;5066714;28;21018;-58
2020/12/21 05:40:24;;;;;;;1.83;1.48;;;17.30;58.40;;;;;;5066621;28;20232;-53
2020/12/21 05:42:49;;;;;;;2.65;1.73;;;17.30;58.40;;;;;;5066388;28;20202;-56
2020/12/21 05:45:15;;;;;;;1.83;1.50;;;17.30;58.40;;;;;;5066929;28;20277;-59
2020/12/21 05:47:41;;;;;;;1.60;1.42;;;17.30;58.50;;;;;;5066579;28;20174;-58
2020/12/21 05:50:06;;;;;;;1.70;1.40;;;17.20;58.40;;;;;;5031913;28;20698;-54
2020/12/21 05:52:36;;;;;;;3.45;1.80;;;17.20;58.40;;;;;;5066043;28;20903;-58
2020/12/21 05:55:06;;;;;;;2.90;1.20;;;17.30;58.50;;;;;;5065975;28;20175;-56
2020/12/21 05:57:32;;;;;;;2.88;2.08;;;17.20;58.40;;;;;;5066117;28;20175;-56
2020/12/21 06:00:01;;;;;;;2.45;1.55;;;17.20;58.40;;;;;;5065996;28;20178;-55
2020/12/21 06:02:27;;;;;;;1.58;1.42;;;17.20;58.50;;;;;;5066579;28;20178;-51
2020/12/21 06:04:59;;;;;;;2.03;1.42;;;17.20;58.40;;;;;;5048299;28;20206;-58
2020/12/21 06:07:25;;;;;;;1.70;1.13;;;17.20;58.40;;;;;;5065450;28;20277;-57
2020/12/21 06:09:50;;;;;;;3.58;1.52;;;17.20;58.40;;;;;;5031275;28;20575;-53
2020/12/21 06:12:21;;;;;;;2.40;1.35;;;17.20;58.50;;;;;;5065977;28;20666;-55
2020/12/21 06:14:48;;;;;;;2.85;1.38;;;17.20;58.50;;;;;;5065751;28;20212;-57
2020/12/21 06:17:14;;;;;;;1.90;1.35;;;17.20;58.50;;;;;;5047743;28;20174;-59
2020/12/21 06:19:40;;;;;;;2.45;1.60;;;17.20;58.50;;;;;;5065782;28;20183;-55
2020/12/21 06:22:05;;;;;;;2.05;1.77;;;17.10;58.40;;;;;;5065235;28;20201;-54
2020/12/21 06:24:36;;;;;;;2.72;1.40;;;17.20;58.50;;;;;;5065462;28;20217;-55
2020/12/21 06:27:11;;;;;;;2.22;1.38;;;17.10;58.40;;;;;;5065257;28;20193;-54
2020/12/21 06:29:37;;;;;;;2.05;1.35;;;17.10;58.40;;;;;;5065434;28;20611;-55
2020/12/21 06:32:04;;;;;;;2.33;1.35;;;17.20;58.60;;;;;;5065184;28;20197;-55
2020/12/21 06:34:29;;;;;;;1.42;1.33;;;17.10;58.60;;;;;;5065269;28;20170;-53
2020/12/21 06:37:16;;;;;;;1.50;1.33;;;17.10;58.50;;;;;;5065121;28;20683;-58
2020/12/21 06:39:42;;;;;;;2.25;1.40;;;17.20;58.60;;;;;;5065339;28;20170;-57
2020/12/21 06:42:09;;;;;;;1.92;1.42;;;17.20;58.60;;;;;;5065386;28;20178;-59
2020/12/21 06:44:38;;;;;;;2.20;1.50;;;17.20;58.70;;;;;;5064470;28;20198;-57
2020/12/21 06:47:04;;;;;;;2.22;1.50;;;17.20;58.80;;;;;;5047720;28;20249;-57
2020/12/21 06:49:30;;;;;;;2.95;1.33;;;17.10;58.80;;;;;;5064902;28;20624;-59
2020/12/21 06:51:55;;;;;;;2.20;1.52;;;17.10;58.70;;;;;;5064888;28;20186;-56
2020/12/21 06:54:21;;;;;;;2.08;1.30;;;17.20;58.60;;;;;;5064967;28;20178;-56
2020/12/21 06:56:50;;;;;;;2.03;1.75;;;17.10;58.50;;;;;;5064860;28;20178;-55
2020/12/21 06:59:19;;;;;;;3.25;1.40;;;17.20;58.60;;;;;;5064930;28;20175;-58
2020/12/21 07:01:46;;;;;;;1.38;1.20;;;17.10;58.60;;;;;;5064873;28;20279;-56
2020/12/21 07:04:15;;;;;;;1.77;1.33;;;17.10;58.60;;;;;;5064598;28;20218;-55
2020/12/21 07:06:41;;;;;;;3.28;1.60;;;17.10;58.50;;;;;;5065028;28;20265;-57
2020/12/21 07:09:07;;;;;;;1.90;1.23;;;17.10;58.50;;;;;;5046775;28;20296;-55
2020/12/21 07:11:32;;;;;;;1.48;1.30;;;17.10;58.50;;;;;;5064478;28;21023;-53
2020/12/21 07:13:58;;;;;;;1.70;1.52;;;17.20;58.60;;;;;;5064314;28;20208;-58
2020/12/21 07:16:23;;;;;;;2.97;1.45;;;17.10;58.60;;;;;;5064480;28;20180;-56
2020/12/21 07:18:49;;;;;;;2.08;1.40;;;17.10;58.70;;;;;;5064532;28;20272;-57
2020/12/21 07:21:15;;;;;;;1.92;1.30;;;17.10;58.70;;;;;;5064434;28;20260;-58
2020/12/21 07:23:41;;;;;;;1.58;1.23;;;17.10;58.70;;;;;;5064235;28;20225;-50
2020/12/21 07:26:07;;;;;;;1.77;1.60;;;17.10;58.60;;;;;;5064551;28;20901;-58
2020/12/21 07:28:33;;;;;;;2.33;1.50;;;17.10;58.50;;;;;;5064243;28;20166;-52
2020/12/21 07:31:12;;;;;;;2.13;1.30;;;17.10;58.50;;;;;;5064418;28;20167;-56
2020/12/21 07:33:51;;;;;;;1.98;1.42;;;17.10;58.60;;;;;;5064485;28;20265;-56
2020/12/21 07:36:17;;;;;;;1.27;1.15;;;17.00;58.50;;;;;;5064026;28;20182;-55
2020/12/21 07:38:43;;;;;;;2.08;1.10;;;17.10;58.50;;;;;;5064099;28;20551;-58
2020/12/21 07:41:08;;;;;;;1.33;1.23;;;17.10;58.50;;;;;;5064043;28;20178;-59
2020/12/21 07:43:36;;;;;;;2.17;1.30;;;17.10;58.50;;;;;;5029624;28;20297;-56
2020/12/21 07:46:20;;;;;;;1.45;1.25;;;17.10;58.50;;;;;;5063976;28;20209;-57
2020/12/21 07:48:46;;;;;;;1.92;1.38;;;17.10;58.50;;;;;;5064081;28;20904;-57
2020/12/21 07:51:12;;;;;;;1.77;1.15;;;17.10;58.60;;;;;;5064096;28;20201;-57
2020/12/21 07:53:40;;;;;;;1.58;1.48;;;17.10;58.60;;;;;;5046538;28;20174;-54
2020/12/21 07:56:06;;;;;;;2.13;1.40;;;17.10;58.60;;;;;;5063788;28;20185;-57
2020/12/21 07:58:34;;;;;;;1.67;1.40;;;17.00;58.60;;;;;;5064219;28;20179;-58
2020/12/21 08:00:59;;;;;;;1.60;1.45;;;17.10;58.60;;;;;;5064578;28;20583;-58
2020/12/21 08:03:26;;;;;;;1.95;1.30;;;17.10;58.60;;;;;;5064155;28;20252;-59
2020/12/21 08:06:10;;;;;;;1.70;1.35;;;17.20;58.60;;;;;;5063743;28;20174;-57
2020/12/21 08:08:36;;;;;;;2.50;1.50;;;17.20;58.70;;;;;;5064061;28;20187;-53
2020/12/21 08:11:02;;;;;;;1.85;1.05;;;17.20;58.70;;;;;;5063957;28;20182;-56
2020/12/21 08:13:28;;;;;;;1.83;1.17;;;17.20;58.70;;;;;;5063890;28;20182;-53
2020/12/21 08:16:05;;;;;;;2.35;1.33;;;17.20;58.70;;;;;;5063839;28;20178;-59
2020/12/21 08:18:31;;;;;;;1.48;1.20;;;17.10;58.80;;;;;;5063810;28;20181;-59
2020/12/21 08:20:57;;;;;;;2.47;1.30;;;17.10;58.70;;;;;;5063850;28;20174;-57
2020/12/21 08:23:23;;;;;;;1.85;1.52;;;17.20;58.90;;;;;;5063586;28;20206;-58
2020/12/21 08:25:49;;;;;;;2.67;1.40;;;17.10;58.80;;;;;;5064049;28;20186;-57
2020/12/21 08:28:41;;;;;;;2.05;1.10;;;17.20;58.80;;;;;;5063957;28;20614;-57
2020/12/21 08:31:11;;;;;;;2.50;1.40;;;17.10;58.80;;;;;;5063736;28;20987;-52
2020/12/21 08:33:37;;;;;;;1.48;1.33;;;17.10;58.80;;;;;;5064147;28;20228;-56
2020/12/21 08:36:24;;;;;;;2.17;1.50;;;17.20;58.90;;;;;;5063963;28;20175;-57
2020/12/21 08:38:50;;;;;;;1.48;1.25;;;17.10;58.90;;;;;;5063707;28;20236;-56
2020/12/21 08:41:16;;;;;;;1.95;1.27;;;17.20;58.90;;;;;;5063517;28;20178;-59
2020/12/21 08:43:41;;;;;;;1.50;1.30;;;17.10;58.80;;;;;;5063489;28;20323;-59
2020/12/21 08:46:12;;;;;;;1.35;1.20;;;17.10;58.80;;;;;;5063498;28;20174;-53
2020/12/21 08:48:38;;;;;;;1.98;1.20;;;17.10;58.90;;;;;;5063663;28;20904;-57
2020/12/21 08:51:04;;;;;;;2.22;1.63;;;17.10;58.80;;;;;;5063443;28;20624;-63
2020/12/21 08:53:29;;;;;;;2.15;1.38;;;17.20;59.10;;;;;;5063398;28;20186;-62
2020/12/21 08:55:55;;;;;;;2.08;1.25;;;17.20;58.90;;;;;;5063460;28;20175;-63
2020/12/21 08:58:20;;;;;;;2.70;1.73;;;17.30;59.00;;;;;;5063515;28;20652;-63
2020/12/21 09:00:46;;;;;;;3.10;1.80;;;17.30;59.00;;;;;;5063359;28;20640;-63
2020/12/21 09:03:11;;;;;;;2.40;1.38;;;17.40;59.20;;;;;;5063423;28;20562;-70
2020/12/21 09:05:37;;;;;;;4.35;1.52;;;17.50;59.30;;;;;;5059325;28;20603;-69
2020/12/21 09:08:03;;;;;;;4.85;1.92;;;17.50;59.20;;;;;;5055328;28;20249;-68
2020/12/21 09:10:29;;;;;;;3.47;1.42;;;17.60;59.00;;;;;;5055857;28;20171;-67
2020/12/21 09:12:54;;;;;;;3.40;1.58;;;17.70;59.00;;;;;;5056941;28;20202;-68
2020/12/21 09:15:20;;;;;;;3.17;1.60;;;17.70;58.90;;;;;;5054880;28;20167;-68
2020/12/21 09:17:45;;;;;;;3.20;1.50;;;17.70;58.90;;;;;;5056118;28;20620;-69
2020/12/21 09:20:11;;;;;;;5.28;2.05;;;17.80;58.90;;;;;;5056519;28;20581;-70
2020/12/21 09:22:36;;;;;;;1.80;1.45;;;17.80;59.00;;;;;;5054669;28;20183;-67
2020/12/21 09:25:02;;;;;;;4.40;2.00;;;17.80;59.10;;;;;;5056305;28;20552;-68
2020/12/21 09:27:27;;;;;;;2.65;1.52;;;17.80;59.20;;;;;;5055705;28;20198;-68
2020/12/21 09:29:53;;;;;;;4.47;1.40;;;17.70;59.30;;;;;;5055111;28;20261;-68
2020/12/21 09:32:19;;;;;;;3.38;2.00;;;17.80;59.40;;;;;;5057081;28;20208;-69
2020/12/21 09:34:44;;;;;;;4.00;1.52;;;17.80;59.30;;;;;;5055864;28;20176;-68
2020/12/21 09:37:11;;;;;;;2.03;1.55;;;17.80;59.30;;;;;;5055204;28;20632;-69
2020/12/21 09:39:37;;;;;;;2.65;1.85;;;17.80;59.20;;;;;;5057040;28;20173;-69
2020/12/21 09:42:04;;;;;;;4.15;1.60;;;17.90;59.30;;;;;;5054871;28;20167;-68
2020/12/21 09:44:30;;;;;;;3.55;1.42;;;17.80;59.30;;;;;;5055123;28;20221;-68
2020/12/21 09:46:55;;;;;;;2.22;1.33;;;17.80;59.30;;;;;;5056244;28;20643;-68
2020/12/21 09:49:21;;;;;;;2.97;1.67;;;17.70;59.40;;;;;;5063291;28;20178;-67
2020/12/21 09:51:52;;;;;;;2.67;1.52;;;17.70;59.60;;;;;;5066457;28;20178;-68
2020/12/21 09:54:18;;;;;;;4.90;2.10;;;17.70;59.70;;;;;;5066416;28;20174;-64
2020/12/21 09:56:50;;;;;;;4.65;1.48;;;17.70;59.80;;;;;;5066173;28;20166;-67
2020/12/21 09:59:16;;;;;;;3.65;1.58;;;17.70;59.70;;;;;;5066056;28;20236;-68
2020/12/21 10:01:41;;;;;;;4.57;1.75;;;17.70;59.60;;;;;;5066067;28;20183;-65
2020/12/21 10:04:07;;;;;;;3.63;1.92;;;17.80;59.60;;;;;;5066012;28;20234;-66
2020/12/21 10:06:33;;;;;;;4.35;1.73;;;17.80;59.40;;;;;;5065940;28;20620;-65
2020/12/21 10:08:59;;;;;;;3.97;1.60;;;17.80;59.30;;;;;;5065823;28;20193;-65
2020/12/21 10:11:24;;;;;;;2.78;1.50;;;17.90;59.20;;;;;;5065750;28;20209;-66
2020/12/21 10:13:50;;;;;;;5.07;1.55;;;18.10;59.00;;;;;;5065776;28;20228;-67
2020/12/21 10:16:15;;;;;;;2.40;1.40;;;18.20;58.80;;;;;;5065468;28;20609;-65
2020/12/21 10:18:41;;;;;;;2.42;1.13;;;18.30;58.50;;;;;;5065187;28;20193;-64
2020/12/21 10:21:07;;;;;;;3.38;1.80;;;18.50;58.20;;;;;;5048066;28;20613;-65
2020/12/21 10:23:32;;;;;;;3.75;1.40;;;18.70;57.90;;;;;;5065503;28;20554;-64
2020/12/21 10:26:01;;;;;;;3.10;1.33;;;18.90;57.70;;;;;;5065376;28;20190;-65
2020/12/21 10:28:27;;;;;;;3.42;1.35;;;19.00;57.30;;;;;;5065812;28;20261;-65
2020/12/21 10:30:52;;;;;;;3.72;1.38;;;19.30;56.90;;;;;;5048133;28;20250;-64
2020/12/21 10:33:18;;;;;;;2.65;1.35;;;19.50;56.40;;;;;;5047808;28;20178;-66
2020/12/21 10:35:44;;;;;;;4.13;1.58;;;19.60;56.10;;;;;;5065354;28;20173;-65
2020/12/21 10:38:09;;;;;;;4.50;1.58;;;19.70;55.90;;;;;;5065637;28;20632;-66
2020/12/21 10:40:35;;;;;;;2.13;1.38;;;19.80;55.70;;;;;;5065382;28;20597;-66
2020/12/21 10:43:00;;;;;;;2.28;1.23;;;19.90;55.60;;;;;;5065140;28;20262;-65
2020/12/21 10:45:26;;;;;;;4.43;1.58;;;19.90;55.50;;;;;;5065096;28;20180;-65
2020/12/21 10:47:52;;;;;;;3.33;1.50;;;19.90;55.40;;;;;;5065200;28;20252;-66
2020/12/21 10:50:17;;;;;;;2.65;1.45;;;19.90;55.40;;;;;;5065381;28;20186;-66
2020/12/21 10:52:43;;;;;;;3.30;1.30;;;19.90;55.30;;;;;;5065495;28;20174;-66
2020/12/21 10:55:09;;;;;;;3.00;1.65;;;19.90;55.40;;;;;;5065171;28;20174;-66
2020/12/21 10:57:34;;;;;;;3.08;1.30;;;19.90;55.30;;;;;;5064958;28;20174;-66
2020/12/21 11:00:00;;;;;;;2.25;1.27;;;19.90;55.40;;;;;;5064722;28;20178;-66
2020/12/21 11:02:25;;;;;;;4.47;1.63;;;19.90;55.40;;;;;;5064787;28;20790;-66
2020/12/21 11:04:51;;;;;;;2.60;1.35;;;19.80;55.40;;;;;;5064609;28;20695;-65
2020/12/21 11:07:17;;;;;;;2.17;1.08;;;19.80;55.40;;;;;;5064822;28;21036;-66
2020/12/21 11:09:43;;;;;;;3.42;1.48;;;19.70;55.50;;;;;;5046858;28;20202;-65
2020/12/21 11:12:08;;;;;;;2.97;1.23;;;19.60;55.80;;;;;;5056324;28;20260;-66
2020/12/21 11:14:34;;;;;;;2.38;1.20;;;19.50;55.90;;;;;;5058974;28;20220;-65
2020/12/21 11:16:59;;;;;;;2.40;1.50;;;19.40;56.10;;;;;;5047417;28;20256;-67
2020/12/21 11:19:25;;;;;;;2.05;1.25;;;19.30;56.30;;;;;;5046199;28;20183;-65
2020/12/21 11:21:51;;;;;;;1.60;1.13;;;19.20;56.50;;;;;;5064432;28;20434;-66
2020/12/21 11:24:16;;;;;;;1.70;1.48;;;19.10;56.60;;;;;;5064155;28;20198;-65
2020/12/21 11:26:42;;;;;;;2.50;1.42;;;19.10;56.70;;;;;;5064173;28;20721;-65
2020/12/21 11:29:07;;;;;;;2.42;1.40;;;19.10;56.70;;;;;;5052274;28;20175;-65
2020/12/21 11:31:36;;;;;;;1.27;1.17;;;19.00;56.70;;;;;;5044615;28;20274;-66
2020/12/21 11:34:02;;;;;;;2.00;1.13;;;19.00;56.70;;;;;;5026926;28;20186;-65
2020/12/21 11:36:27;;;;;;;2.25;1.45;;;19.00;56.90;;;;;;5044440;28;20522;-65
2020/12/21 11:38:53;;;;;;;1.40;0.80;;;18.90;56.90;;;;;;5044015;28;20273;-65
2020/12/21 11:41:19;;;;;;;2.97;1.35;;;18.80;57.10;;;;;;5044329;28;20171;-65
2020/12/21 11:43:44;;;;;;;2.10;1.25;;;18.70;57.20;;;;;;5044212;28;20306;-66
2020/12/21 11:46:11;;;;;;;1.70;1.20;;;18.70;57.30;;;;;;5037356;28;20235;-66
2020/12/21 11:48:37;;;;;;;2.05;1.30;;;18.70;57.40;;;;;;5046459;28;20170;-66
2020/12/21 11:51:03;;;;;;;2.58;1.33;;;18.70;57.40;;;;;;5064050;28;20228;-65
2020/12/21 11:53:28;;;;;;;3.83;1.30;;;18.70;57.30;;;;;;5064086;28;20283;-65
2020/12/21 11:55:54;;;;;;;2.58;1.20;;;18.70;57.20;;;;;;5064087;28;20171;-67
2020/12/21 11:58:19;;;;;;;3.25;1.20;;;18.80;57.20;;;;;;5063996;28;20648;-66
2020/12/21 12:00:45;;;;;;;2.33;1.00;;;18.80;57.10;;;;;;5064140;28;20689;-65
2020/12/21 12:03:10;;;;;;;3.03;1.30;;;18.80;57.20;;;;;;5063817;28;20636;-65
2020/12/21 12:05:36;;;;;;;1.73;1.10;;;18.70;57.20;;;;;;5063935;28;20277;-65
2020/12/21 12:08:01;;;;;;;2.22;1.25;;;18.70;57.30;;;;;;5063663;28;20216;-65
2020/12/21 12:10:27;;;;;;;2.30;1.30;;;18.70;57.40;;;;;;5064174;28;20216;-59
2020/12/21 12:12:52;;;;;;;2.55;1.10;;;18.60;57.60;;;;;;5064208;28;20178;-64
2020/12/21 12:15:18;;;;;;;2.25;1.20;;;18.50;57.70;;;;;;5064048;28;20175;-66
2020/12/21 12:17:43;;;;;;;3.92;1.67;;;18.50;57.90;;;;;;5063652;28;20624;-66
2020/12/21 12:20:10;;;;;;;2.30;1.20;;;18.60;57.90;;;;;;5053805;28;20527;-66
2020/12/21 12:22:36;;;;;;;2.80;1.33;;;18.60;57.80;;;;;;5043928;28;20174;-65
2020/12/21 12:25:01;;;;;;;2.47;1.25;;;18.70;57.70;;;;;;5043782;28;20207;-64
2020/12/21 12:27:27;;;;;;;2.70;1.25;;;18.70;57.70;;;;;;5043700;28;20246;-65
2020/12/21 12:29:53;;;;;;;2.70;1.42;;;18.70;57.70;;;;;;5043868;28;20191;-65
2020/12/21 12:32:19;;;;;;;1.70;1.20;;;18.70;57.50;;;;;;5043615;28;20644;-67
2020/12/21 12:34:44;;;;;;;2.38;1.45;;;18.70;57.50;;;;;;5043594;28;20179;-66
2020/12/21 12:37:10;;;;;;;3.38;1.50;;;18.70;57.50;;;;;;5044041;28;20179;-67
2020/12/21 12:39:36;;;;;;;2.88;1.23;;;18.60;57.60;;;;;;5043297;28;20730;-65
2020/12/21 12:42:01;;;;;;;3.30;1.33;;;18.50;57.70;;;;;;5045834;28;20191;-66
2020/12/21 12:44:27;;;;;;;2.72;1.85;;;18.50;57.90;;;;;;5047462;28;20297;-66